sensor_id;sensor_type;location;lat;lon;timestamp;temperature;humidity
43697;DHT22;29301;47.620;19.560;2023-04-03T00:01:32;9.40;90.30
43697;DHT22;29301;47.620;19.560;2023-04-03T00:03:58;9.30;91.30
43697;DHT22;29301;47.620;19.560;2023-04-03T00:06:24;9.30;92.30
43697;DHT22;29301;47.620;19.560;2023-04-03T00:08:52;9.20;92.80
43697;DHT22;29301;47.620;19.560;2023-04-03T00:11:18;9.20;92.70
43697;DHT22;29301;47.620;19.560;2023-04-03T00:13:44;9.20;91.20
43697;DHT22;29301;47.620;19.560;2023-04-03T00:16:10;9.20;90.70
43697;DHT22;29301;47.620;19.560;2023-04-03T00:18:37;9.20;89.20
43697;DHT22;29301;47.620;19.560;2023-04-03T00:21:04;9.10;85.60
43697;DHT22;29301;47.620;19.560;2023-04-03T00:23:30;9.10;81.70
43697;DHT22;29301;47.620;19.560;2023-04-03T00:25:56;8.90;79.30
43697;DHT22;29301;47.620;19.560;2023-04-03T00:28:21;8.90;78.40
43697;DHT22;29301;47.620;19.560;2023-04-03T00:30:49;9.00;78.10
43697;DHT22;29301;47.620;19.560;2023-04-03T00:33:15;9.00;79.50
43697;DHT22;29301;47.620;19.560;2023-04-03T00:35:41;9.00;78.70
43697;DHT22;29301;47.620;19.560;2023-04-03T00:38:08;9.00;79.80
43697;DHT22;29301;47.620;19.560;2023-04-03T00:40:37;9.00;80.10
43697;DHT22;29301;47.620;19.560;2023-04-03T00:43:12;9.00;80.70
43697;DHT22;29301;47.620;19.560;2023-04-03T00:45:40;8.90;83.00
43697;DHT22;29301;47.620;19.560;2023-04-03T00:48:09;8.70;86.10
43697;DHT22;29301;47.620;19.560;2023-04-03T00:50:41;8.50;87.50
43697;DHT22;29301;47.620;19.560;2023-04-03T00:53:11;8.40;89.90
43697;DHT22;29301;47.620;19.560;2023-04-03T00:55:38;8.30;90.80
43697;DHT22;29301;47.620;19.560;2023-04-03T00:58:05;8.20;91.80
43697;DHT22;29301;47.620;19.560;2023-04-03T01:00:32;8.30;91.70
43697;DHT22;29301;47.620;19.560;2023-04-03T01:02:59;8.40;91.10
43697;DHT22;29301;47.620;19.560;2023-04-03T01:05:26;8.40;90.90
43697;DHT22;29301;47.620;19.560;2023-04-03T01:07:52;8.40;90.50
43697;DHT22;29301;47.620;19.560;2023-04-03T01:10:19;8.40;90.40
43697;DHT22;29301;47.620;19.560;2023-04-03T01:12:48;8.50;90.60
43697;DHT22;29301;47.620;19.560;2023-04-03T01:15:16;8.50;90.80
43697;DHT22;29301;47.620;19.560;2023-04-03T01:17:58;8.50;90.80
43697;DHT22;29301;47.620;19.560;2023-04-03T01:25:37;8.40;90.80
43697;DHT22;29301;47.620;19.560;2023-04-03T01:28:09;8.40;90.60
43697;DHT22;29301;47.620;19.560;2023-04-03T01:30:43;8.40;90.50
43697;DHT22;29301;47.620;19.560;2023-04-03T01:33:10;8.40;90.50
43697;DHT22;29301;47.620;19.560;2023-04-03T01:35:36;8.40;89.90
43697;DHT22;29301;47.620;19.560;2023-04-03T01:38:02;8.40;88.60
43697;DHT22;29301;47.620;19.560;2023-04-03T01:40:28;8.40;87.90
43697;DHT22;29301;47.620;19.560;2023-04-03T01:42:54;8.40;87.50
43697;DHT22;29301;47.620;19.560;2023-04-03T01:45:20;8.30;86.20
43697;DHT22;29301;47.620;19.560;2023-04-03T01:47:45;8.30;85.20
43697;DHT22;29301;47.620;19.560;2023-04-03T01:50:11;8.30;83.90
43697;DHT22;29301;47.620;19.560;2023-04-03T01:52:37;8.30;83.80
43697;DHT22;29301;47.620;19.560;2023-04-03T01:55:03;8.30;83.50
43697;DHT22;29301;47.620;19.560;2023-04-03T01:57:28;8.30;82.30
43697;DHT22;29301;47.620;19.560;2023-04-03T01:59:54;8.30;81.30
43697;DHT22;29301;47.620;19.560;2023-04-03T02:02:20;8.20;82.30
43697;DHT22;29301;47.620;19.560;2023-04-03T02:04:46;8.20;81.80
43697;DHT22;29301;47.620;19.560;2023-04-03T02:07:11;8.20;81.30
43697;DHT22;29301;47.620;19.560;2023-04-03T02:09:37;8.20;80.60
43697;DHT22;29301;47.620;19.560;2023-04-03T02:12:03;8.10;80.60
43697;DHT22;29301;47.620;19.560;2023-04-03T02:14:28;8.10;81.50
43697;DHT22;29301;47.620;19.560;2023-04-03T02:16:54;8.10;81.60
43697;DHT22;29301;47.620;19.560;2023-04-03T02:19:20;8.10;81.40
43697;DHT22;29301;47.620;19.560;2023-04-03T02:21:46;8.10;79.80
43697;DHT22;29301;47.620;19.560;2023-04-03T02:24:11;8.20;79.60
43697;DHT22;29301;47.620;19.560;2023-04-03T02:26:37;8.20;79.00
43697;DHT22;29301;47.620;19.560;2023-04-03T02:29:03;8.20;79.00
43697;DHT22;29301;47.620;19.560;2023-04-03T02:31:29;8.20;78.40
43697;DHT22;29301;47.620;19.560;2023-04-03T02:33:54;8.20;77.60
43697;DHT22;29301;47.620;19.560;2023-04-03T02:36:20;8.20;76.90
43697;DHT22;29301;47.620;19.560;2023-04-03T02:38:46;8.20;76.60
43697;DHT22;29301;47.620;19.560;2023-04-03T02:41:12;8.20;76.00
43697;DHT22;29301;47.620;19.560;2023-04-03T02:43:39;8.10;75.80
43697;DHT22;29301;47.620;19.560;2023-04-03T02:46:05;8.20;76.30
43697;DHT22;29301;47.620;19.560;2023-04-03T02:48:32;8.20;76.10
43697;DHT22;29301;47.620;19.560;2023-04-03T02:50:58;8.10;76.20
43697;DHT22;29301;47.620;19.560;2023-04-03T02:53:24;8.20;76.50
43697;DHT22;29301;47.620;19.560;2023-04-03T02:55:50;8.20;76.60
43697;DHT22;29301;47.620;19.560;2023-04-03T02:58:15;8.10;75.70
43697;DHT22;29301;47.620;19.560;2023-04-03T03:00:41;8.10;75.50
43697;DHT22;29301;47.620;19.560;2023-04-03T03:03:07;8.00;75.80
43697;DHT22;29301;47.620;19.560;2023-04-03T03:05:33;8.10;75.70
43697;DHT22;29301;47.620;19.560;2023-04-03T03:07:58;8.00;75.90
43697;DHT22;29301;47.620;19.560;2023-04-03T03:10:24;8.00;76.40
43697;DHT22;29301;47.620;19.560;2023-04-03T03:12:50;8.00;76.30
43697;DHT22;29301;47.620;19.560;2023-04-03T03:15:16;8.00;75.70
43697;DHT22;29301;47.620;19.560;2023-04-03T03:17:43;8.00;74.90
43697;DHT22;29301;47.620;19.560;2023-04-03T03:20:09;8.00;75.30
43697;DHT22;29301;47.620;19.560;2023-04-03T03:22:35;8.00;75.10
43697;DHT22;29301;47.620;19.560;2023-04-03T03:25:01;8.00;74.10
43697;DHT22;29301;47.620;19.560;2023-04-03T03:27:28;8.00;73.50
43697;DHT22;29301;47.620;19.560;2023-04-03T03:29:53;8.00;72.60
43697;DHT22;29301;47.620;19.560;2023-04-03T03:32:19;7.90;72.20
43697;DHT22;29301;47.620;19.560;2023-04-03T03:34:45;7.80;72.50
43697;DHT22;29301;47.620;19.560;2023-04-03T03:37:11;7.80;73.00
43697;DHT22;29301;47.620;19.560;2023-04-03T03:39:37;7.80;73.90
43697;DHT22;29301;47.620;19.560;2023-04-03T03:42:02;7.90;73.90
43697;DHT22;29301;47.620;19.560;2023-04-03T03:44:28;7.90;73.60
43697;DHT22;29301;47.620;19.560;2023-04-03T03:46:55;7.70;73.30
43697;DHT22;29301;47.620;19.560;2023-04-03T03:49:20;7.60;73.50
43697;DHT22;29301;47.620;19.560;2023-04-03T03:51:46;7.50;74.80
43697;DHT22;29301;47.620;19.560;2023-04-03T03:54:12;7.40;75.80
43697;DHT22;29301;47.620;19.560;2023-04-03T03:56:39;7.40;76.00
43697;DHT22;29301;47.620;19.560;2023-04-03T03:59:05;7.30;77.00
43697;DHT22;29301;47.620;19.560;2023-04-03T04:01:30;7.30;77.20
43697;DHT22;29301;47.620;19.560;2023-04-03T04:03:56;7.20;77.20
43697;DHT22;29301;47.620;19.560;2023-04-03T04:06:22;7.20;77.50
43697;DHT22;29301;47.620;19.560;2023-04-03T04:08:48;7.20;76.80
43697;DHT22;29301;47.620;19.560;2023-04-03T04:11:15;7.10;76.00
43697;DHT22;29301;47.620;19.560;2023-04-03T04:13:40;7.10;77.00
43697;DHT22;29301;47.620;19.560;2023-04-03T04:16:07;7.10;77.10
43697;DHT22;29301;47.620;19.560;2023-04-03T04:18:32;7.00;77.30
43697;DHT22;29301;47.620;19.560;2023-04-03T04:20:58;7.00;76.40
43697;DHT22;29301;47.620;19.560;2023-04-03T04:23:24;7.10;75.60
43697;DHT22;29301;47.620;19.560;2023-04-03T04:25:49;7.10;75.90
43697;DHT22;29301;47.620;19.560;2023-04-03T04:28:16;7.10;75.90
43697;DHT22;29301;47.620;19.560;2023-04-03T04:30:42;7.00;76.40
43697;DHT22;29301;47.620;19.560;2023-04-03T04:33:07;7.00;75.60
43697;DHT22;29301;47.620;19.560;2023-04-03T04:35:33;7.00;75.60
43697;DHT22;29301;47.620;19.560;2023-04-03T04:37:59;6.90;75.90
43697;DHT22;29301;47.620;19.560;2023-04-03T04:40:25;6.80;76.20
43697;DHT22;29301;47.620;19.560;2023-04-03T04:42:51;6.90;75.60
43697;DHT22;29301;47.620;19.560;2023-04-03T04:45:17;6.90;75.30
43697;DHT22;29301;47.620;19.560;2023-04-03T04:47:43;6.90;75.00
43697;DHT22;29301;47.620;19.560;2023-04-03T04:50:09;6.90;74.10
43697;DHT22;29301;47.620;19.560;2023-04-03T04:52:35;6.80;73.30
43697;DHT22;29301;47.620;19.560;2023-04-03T04:55:01;6.70;73.30
43697;DHT22;29301;47.620;19.560;2023-04-03T04:57:26;6.60;73.70
43697;DHT22;29301;47.620;19.560;2023-04-03T04:59:52;6.70;74.00
43697;DHT22;29301;47.620;19.560;2023-04-03T05:02:18;6.60;73.80
43697;DHT22;29301;47.620;19.560;2023-04-03T05:04:44;6.60;73.90
43697;DHT22;29301;47.620;19.560;2023-04-03T05:07:10;6.60;73.50
43697;DHT22;29301;47.620;19.560;2023-04-03T05:09:35;6.60;73.50
43697;DHT22;29301;47.620;19.560;2023-04-03T05:12:01;6.70;73.20
43697;DHT22;29301;47.620;19.560;2023-04-03T05:14:28;6.60;73.80
43697;DHT22;29301;47.620;19.560;2023-04-03T05:16:54;6.70;74.30
43697;DHT22;29301;47.620;19.560;2023-04-03T05:19:23;6.60;73.90
43697;DHT22;29301;47.620;19.560;2023-04-03T05:21:48;6.60;74.30
43697;DHT22;29301;47.620;19.560;2023-04-03T05:24:15;6.60;74.40
43697;DHT22;29301;47.620;19.560;2023-04-03T05:26:42;6.60;74.40
43697;DHT22;29301;47.620;19.560;2023-04-03T05:29:07;6.70;73.20
43697;DHT22;29301;47.620;19.560;2023-04-03T05:31:33;6.70;72.40
43697;DHT22;29301;47.620;19.560;2023-04-03T05:33:59;6.70;72.50
43697;DHT22;29301;47.620;19.560;2023-04-03T05:36:25;6.80;72.60
43697;DHT22;29301;47.620;19.560;2023-04-03T05:38:52;6.90;72.80
43697;DHT22;29301;47.620;19.560;2023-04-03T05:41:18;6.90;72.40
43697;DHT22;29301;47.620;19.560;2023-04-03T05:43:43;6.90;71.30
43697;DHT22;29301;47.620;19.560;2023-04-03T05:46:17;6.90;71.90
43697;DHT22;29301;47.620;19.560;2023-04-03T05:48:43;6.90;71.30
43697;DHT22;29301;47.620;19.560;2023-04-03T05:51:18;7.00;70.80
43697;DHT22;29301;47.620;19.560;2023-04-03T05:53:45;7.00;71.00
43697;DHT22;29301;47.620;19.560;2023-04-03T05:56:12;7.10;71.90
43697;DHT22;29301;47.620;19.560;2023-04-03T05:58:38;7.20;72.10
43697;DHT22;29301;47.620;19.560;2023-04-03T06:01:04;7.20;71.60
43697;DHT22;29301;47.620;19.560;2023-04-03T06:03:30;7.30;71.00
43697;DHT22;29301;47.620;19.560;2023-04-03T06:05:57;7.40;70.30
43697;DHT22;29301;47.620;19.560;2023-04-03T06:08:22;7.40;70.00
43697;DHT22;29301;47.620;19.560;2023-04-03T06:10:49;7.50;69.70
43697;DHT22;29301;47.620;19.560;2023-04-03T06:13:17;7.50;69.60
43697;DHT22;29301;47.620;19.560;2023-04-03T06:15:42;7.60;68.60
43697;DHT22;29301;47.620;19.560;2023-04-03T06:18:08;7.60;67.80
43697;DHT22;29301;47.620;19.560;2023-04-03T06:20:34;7.60;67.70
43697;DHT22;29301;47.620;19.560;2023-04-03T06:22:59;7.60;67.10
43697;DHT22;29301;47.620;19.560;2023-04-03T06:25:25;7.70;66.60
43697;DHT22;29301;47.620;19.560;2023-04-03T06:27:52;7.70;66.90
43697;DHT22;29301;47.620;19.560;2023-04-03T06:30:17;7.80;67.20
43697;DHT22;29301;47.620;19.560;2023-04-03T06:32:43;7.90;66.40
43697;DHT22;29301;47.620;19.560;2023-04-03T06:35:09;7.80;65.70
43697;DHT22;29301;47.620;19.560;2023-04-03T06:37:35;7.80;65.00
43697;DHT22;29301;47.620;19.560;2023-04-03T06:40:01;7.90;63.80
43697;DHT22;29301;47.620;19.560;2023-04-03T06:42:28;7.80;62.90
43697;DHT22;29301;47.620;19.560;2023-04-03T06:44:53;7.90;62.90
43697;DHT22;29301;47.620;19.560;2023-04-03T06:47:19;8.00;63.20
43697;DHT22;29301;47.620;19.560;2023-04-03T06:49:45;8.10;63.60
43697;DHT22;29301;47.620;19.560;2023-04-03T06:52:11;8.20;62.80
43697;DHT22;29301;47.620;19.560;2023-04-03T06:54:40;8.30;62.60
43697;DHT22;29301;47.620;19.560;2023-04-03T06:57:07;8.40;61.60
43697;DHT22;29301;47.620;19.560;2023-04-03T06:59:33;8.40;61.30
43697;DHT22;29301;47.620;19.560;2023-04-03T07:01:59;8.30;61.20
43697;DHT22;29301;47.620;19.560;2023-04-03T07:04:25;8.40;60.80
43697;DHT22;29301;47.620;19.560;2023-04-03T07:06:51;8.30;60.40
43697;DHT22;29301;47.620;19.560;2023-04-03T07:09:18;8.40;61.00
43697;DHT22;29301;47.620;19.560;2023-04-03T07:11:43;8.40;61.20
43697;DHT22;29301;47.620;19.560;2023-04-03T07:14:10;8.50;60.70
43697;DHT22;29301;47.620;19.560;2023-04-03T07:16:36;8.50;61.10
43697;DHT22;29301;47.620;19.560;2023-04-03T07:19:02;8.60;60.20
43697;DHT22;29301;47.620;19.560;2023-04-03T07:21:28;8.60;60.90
43697;DHT22;29301;47.620;19.560;2023-04-03T07:23:54;8.70;61.10
43697;DHT22;29301;47.620;19.560;2023-04-03T07:26:21;8.70;59.30
43697;DHT22;29301;47.620;19.560;2023-04-03T07:28:48;8.70;59.20
43697;DHT22;29301;47.620;19.560;2023-04-03T07:31:15;8.80;59.20
43697;DHT22;29301;47.620;19.560;2023-04-03T07:33:42;8.90;57.90
43697;DHT22;29301;47.620;19.560;2023-04-03T07:36:09;8.90;56.20
43697;DHT22;29301;47.620;19.560;2023-04-03T07:38:36;9.20;66.10
43697;DHT22;29301;47.620;19.560;2023-04-03T07:41:03;9.50;60.90
43697;DHT22;29301;47.620;19.560;2023-04-03T07:43:29;9.80;65.20
43697;DHT22;29301;47.620;19.560;2023-04-03T07:45:55;9.80;53.50
43697;DHT22;29301;47.620;19.560;2023-04-03T07:48:22;9.70;51.50
43697;DHT22;29301;47.620;19.560;2023-04-03T07:50:48;9.60;51.80
43697;DHT22;29301;47.620;19.560;2023-04-03T07:53:14;9.60;51.20
43697;DHT22;29301;47.620;19.560;2023-04-03T07:55:40;9.70;51.50
43697;DHT22;29301;47.620;19.560;2023-04-03T07:58:11;9.80;52.00
43697;DHT22;29301;47.620;19.560;2023-04-03T08:00:37;10.00;50.20
43697;DHT22;29301;47.620;19.560;2023-04-03T08:03:03;10.00;48.20
43697;DHT22;29301;47.620;19.560;2023-04-03T08:05:29;9.90;48.40
43697;DHT22;29301;47.620;19.560;2023-04-03T08:07:55;9.90;48.90
43697;DHT22;29301;47.620;19.560;2023-04-03T08:10:20;10.00;48.80
43697;DHT22;29301;47.620;19.560;2023-04-03T08:12:47;10.10;49.80
43697;DHT22;29301;47.620;19.560;2023-04-03T08:15:13;10.20;48.40
43697;DHT22;29301;47.620;19.560;2023-04-03T08:17:39;10.20;48.00
43697;DHT22;29301;47.620;19.560;2023-04-03T08:20:06;10.20;47.60
43697;DHT22;29301;47.620;19.560;2023-04-03T08:22:33;10.20;46.90
43697;DHT22;29301;47.620;19.560;2023-04-03T08:24:59;10.30;47.00
43697;DHT22;29301;47.620;19.560;2023-04-03T08:27:27;10.30;47.20
43697;DHT22;29301;47.620;19.560;2023-04-03T08:29:54;10.50;46.70
43697;DHT22;29301;47.620;19.560;2023-04-03T08:32:20;10.60;47.10
43697;DHT22;29301;47.620;19.560;2023-04-03T08:34:45;10.90;45.90
43697;DHT22;29301;47.620;19.560;2023-04-03T08:37:11;11.10;43.90
43697;DHT22;29301;47.620;19.560;2023-04-03T08:39:37;11.50;43.30
43697;DHT22;29301;47.620;19.560;2023-04-03T08:42:07;11.80;41.00
43697;DHT22;29301;47.620;19.560;2023-04-03T08:44:59;11.70;39.50
43697;DHT22;29301;47.620;19.560;2023-04-03T08:47:40;11.60;39.90
43697;DHT22;29301;47.620;19.560;2023-04-03T08:50:12;11.80;39.10
43697;DHT22;29301;47.620;19.560;2023-04-03T08:52:40;12.10;39.50
43697;DHT22;29301;47.620;19.560;2023-04-03T08:55:13;12.20;38.30
43697;DHT22;29301;47.620;19.560;2023-04-03T08:57:41;12.30;37.30
43697;DHT22;29301;47.620;19.560;2023-04-03T09:00:16;12.20;36.90
43697;DHT22;29301;47.620;19.560;2023-04-03T09:02:50;12.00;36.70
43697;DHT22;29301;47.620;19.560;2023-04-03T09:05:20;12.10;37.70
43697;DHT22;29301;47.620;19.560;2023-04-03T09:07:51;12.10;37.00
43697;DHT22;29301;47.620;19.560;2023-04-03T09:10:24;12.00;37.20
43697;DHT22;29301;47.620;19.560;2023-04-03T09:13:09;11.90;37.50
43697;DHT22;29301;47.620;19.560;2023-04-03T09:15:35;11.90;37.10
43697;DHT22;29301;47.620;19.560;2023-04-03T09:18:15;11.80;37.00
43697;DHT22;29301;47.620;19.560;2023-04-03T09:24:00;11.70;36.60
43697;DHT22;29301;47.620;19.560;2023-04-03T09:26:30;11.70;36.20
43697;DHT22;29301;47.620;19.560;2023-04-03T09:29:02;11.50;35.70
43697;DHT22;29301;47.620;19.560;2023-04-03T09:31:36;11.50;36.10
43697;DHT22;29301;47.620;19.560;2023-04-03T09:34:07;11.70;35.90
43697;DHT22;29301;47.620;19.560;2023-04-03T09:36:49;11.60;35.50
43697;DHT22;29301;47.620;19.560;2023-04-03T09:44:23;11.70;34.80
43697;DHT22;29301;47.620;19.560;2023-04-03T09:46:49;11.70;35.60
43697;DHT22;29301;47.620;19.560;2023-04-03T09:49:16;11.70;35.50
43697;DHT22;29301;47.620;19.560;2023-04-03T09:51:42;11.80;35.70
43697;DHT22;29301;47.620;19.560;2023-04-03T09:54:37;11.80;35.20
43697;DHT22;29301;47.620;19.560;2023-04-03T09:57:11;11.80;34.90
43697;DHT22;29301;47.620;19.560;2023-04-03T09:59:41;11.90;35.10
43697;DHT22;29301;47.620;19.560;2023-04-03T10:02:38;12.00;35.40
43697;DHT22;29301;47.620;19.560;2023-04-03T10:05:37;12.10;35.00
43697;DHT22;29301;47.620;19.560;2023-04-03T10:10:46;12.20;35.60
43697;DHT22;29301;47.620;19.560;2023-04-03T10:15:43;12.20;34.20
43697;DHT22;29301;47.620;19.560;2023-04-03T10:27:12;12.20;33.70
43697;DHT22;29301;47.620;19.560;2023-04-03T10:30:03;12.30;34.40
43697;DHT22;29301;47.620;19.560;2023-04-03T10:35:36;12.20;34.30
43697;DHT22;29301;47.620;19.560;2023-04-03T10:46:21;12.40;34.40
43697;DHT22;29301;47.620;19.560;2023-04-03T10:51:53;12.70;38.00
43697;DHT22;29301;47.620;19.560;2023-04-03T10:54:26;12.80;38.20
43697;DHT22;29301;47.620;19.560;2023-04-03T10:57:01;13.10;37.90
43697;DHT22;29301;47.620;19.560;2023-04-03T10:59:40;13.00;34.80
43697;DHT22;29301;47.620;19.560;2023-04-03T11:04:45;12.40;35.70
43697;DHT22;29301;47.620;19.560;2023-04-03T11:07:33;12.30;36.10
43697;DHT22;29301;47.620;19.560;2023-04-03T11:10:10;12.20;36.30
43697;DHT22;29301;47.620;19.560;2023-04-03T11:12:52;12.10;36.10
43697;DHT22;29301;47.620;19.560;2023-04-03T11:15:20;12.00;36.50
43697;DHT22;29301;47.620;19.560;2023-04-03T11:17:54;11.90;37.00
43697;DHT22;29301;47.620;19.560;2023-04-03T11:20:25;11.70;37.80
43697;DHT22;29301;47.620;19.560;2023-04-03T11:23:31;11.70;37.70
43697;DHT22;29301;47.620;19.560;2023-04-03T11:26:11;11.60;36.30
43697;DHT22;29301;47.620;19.560;2023-04-03T11:28:37;11.50;36.90
43697;DHT22;29301;47.620;19.560;2023-04-03T11:36:56;11.40;37.00
43697;DHT22;29301;47.620;19.560;2023-04-03T11:39:25;11.40;36.50
43697;DHT22;29301;47.620;19.560;2023-04-03T11:41:52;11.30;36.60
43697;DHT22;29301;47.620;19.560;2023-04-03T11:44:37;11.40;36.60
43697;DHT22;29301;47.620;19.560;2023-04-03T11:47:10;11.40;35.80
43697;DHT22;29301;47.620;19.560;2023-04-03T12:16:26;11.60;33.30
43697;DHT22;29301;47.620;19.560;2023-04-03T12:21:20;11.50;33.50
43697;DHT22;29301;47.620;19.560;2023-04-03T12:24:25;11.50;32.70
43697;DHT22;29301;47.620;19.560;2023-04-03T12:45:20;11.40;33.10
43697;DHT22;29301;47.620;19.560;2023-04-03T12:47:49;11.40;32.50
43697;DHT22;29301;47.620;19.560;2023-04-03T12:50:35;11.40;32.50
43697;DHT22;29301;47.620;19.560;2023-04-03T12:53:21;11.50;32.30
43697;DHT22;29301;47.620;19.560;2023-04-03T12:55:53;11.50;32.40
43697;DHT22;29301;47.620;19.560;2023-04-03T12:58:28;11.60;32.10
43697;DHT22;29301;47.620;19.560;2023-04-03T13:01:12;11.60;31.70
43697;DHT22;29301;47.620;19.560;2023-04-03T13:03:42;11.70;32.10
43697;DHT22;29301;47.620;19.560;2023-04-03T13:06:17;11.70;31.30
43697;DHT22;29301;47.620;19.560;2023-04-03T13:09:00;11.70;31.50
43697;DHT22;29301;47.620;19.560;2023-04-03T13:11:31;11.70;30.60
43697;DHT22;29301;47.620;19.560;2023-04-03T13:14:00;11.70;30.70
43697;DHT22;29301;47.620;19.560;2023-04-03T13:16:27;11.80;30.70
43697;DHT22;29301;47.620;19.560;2023-04-03T13:18:54;11.70;30.80
43697;DHT22;29301;47.620;19.560;2023-04-03T13:21:26;11.70;30.30
43697;DHT22;29301;47.620;19.560;2023-04-03T13:23:55;11.70;29.80
43697;DHT22;29301;47.620;19.560;2023-04-03T13:26:24;11.70;29.60
43697;DHT22;29301;47.620;19.560;2023-04-03T13:28:52;11.80;29.80
43697;DHT22;29301;47.620;19.560;2023-04-03T13:31:30;11.70;29.80
43697;DHT22;29301;47.620;19.560;2023-04-03T13:34:27;11.80;29.60
43697;DHT22;29301;47.620;19.560;2023-04-03T13:39:25;11.80;30.50
43697;DHT22;29301;47.620;19.560;2023-04-03T13:41:58;11.90;30.90
43697;DHT22;29301;47.620;19.560;2023-04-03T13:46:58;11.90;29.80
43697;DHT22;29301;47.620;19.560;2023-04-03T13:49:37;11.90;29.30
43697;DHT22;29301;47.620;19.560;2023-04-03T13:52:27;11.80;29.60
43697;DHT22;29301;47.620;19.560;2023-04-03T14:01:00;11.80;29.90
43697;DHT22;29301;47.620;19.560;2023-04-03T14:03:32;11.70;30.80
43697;DHT22;29301;47.620;19.560;2023-04-03T14:05:58;11.80;31.60
43697;DHT22;29301;47.620;19.560;2023-04-03T14:08:25;11.80;31.10
43697;DHT22;29301;47.620;19.560;2023-04-03T14:10:51;11.90;31.30
43697;DHT22;29301;47.620;19.560;2023-04-03T14:13:18;11.90;30.60
43697;DHT22;29301;47.620;19.560;2023-04-03T14:15:46;11.90;29.80
43697;DHT22;29301;47.620;19.560;2023-04-03T14:18:15;11.90;29.80
43697;DHT22;29301;47.620;19.560;2023-04-03T14:20:42;11.90;29.90
43697;DHT22;29301;47.620;19.560;2023-04-03T14:23:08;11.90;29.70
43697;DHT22;29301;47.620;19.560;2023-04-03T14:25:34;11.80;29.70
43697;DHT22;29301;47.620;19.560;2023-04-03T14:28:00;11.70;29.80
43697;DHT22;29301;47.620;19.560;2023-04-03T14:30:31;11.70;30.10
43697;DHT22;29301;47.620;19.560;2023-04-03T14:32:59;11.70;30.20
43697;DHT22;29301;47.620;19.560;2023-04-03T14:35:26;11.70;30.40
43697;DHT22;29301;47.620;19.560;2023-04-03T14:37:53;11.70;30.60
43697;DHT22;29301;47.620;19.560;2023-04-03T14:40:23;11.70;31.10
43697;DHT22;29301;47.620;19.560;2023-04-03T14:42:50;11.70;31.20
43697;DHT22;29301;47.620;19.560;2023-04-03T14:45:17;11.60;31.40
43697;DHT22;29301;47.620;19.560;2023-04-03T14:47:46;11.60;32.50
43697;DHT22;29301;47.620;19.560;2023-04-03T14:50:24;11.40;32.60
43697;DHT22;29301;47.620;19.560;2023-04-03T14:52:53;11.40;33.10
43697;DHT22;29301;47.620;19.560;2023-04-03T14:55:21;11.20;33.90
43697;DHT22;29301;47.620;19.560;2023-04-03T14:57:46;11.20;34.10
43697;DHT22;29301;47.620;19.560;2023-04-03T15:00:18;11.10;34.50
43697;DHT22;29301;47.620;19.560;2023-04-03T15:02:44;11.00;35.30
43697;DHT22;29301;47.620;19.560;2023-04-03T15:05:11;10.90;35.60
43697;DHT22;29301;47.620;19.560;2023-04-03T15:08:16;10.80;35.80
43697;DHT22;29301;47.620;19.560;2023-04-03T15:10:34;10.60;35.20
43697;DHT22;29301;47.620;19.560;2023-04-03T15:13:00;10.60;36.10
43697;DHT22;29301;47.620;19.560;2023-04-03T15:15:28;10.50;36.40
43697;DHT22;29301;47.620;19.560;2023-04-03T15:17:55;10.50;37.10
43697;DHT22;29301;47.620;19.560;2023-04-03T15:20:25;10.40;36.80
43697;DHT22;29301;47.620;19.560;2023-04-03T15:22:51;10.40;37.30
43697;DHT22;29301;47.620;19.560;2023-04-03T15:25:17;10.30;37.30
43697;DHT22;29301;47.620;19.560;2023-04-03T15:27:44;10.30;37.70
43697;DHT22;29301;47.620;19.560;2023-04-03T15:30:17;10.30;38.10
43697;DHT22;29301;47.620;19.560;2023-04-03T15:32:45;10.20;38.20
43697;DHT22;29301;47.620;19.560;2023-04-03T15:35:11;10.20;38.50
43697;DHT22;29301;47.620;19.560;2023-04-03T15:37:36;10.20;38.30
43697;DHT22;29301;47.620;19.560;2023-04-03T15:40:06;10.10;37.90
43697;DHT22;29301;47.620;19.560;2023-04-03T15:42:32;10.00;37.70
43697;DHT22;29301;47.620;19.560;2023-04-03T15:44:58;10.00;37.10
43697;DHT22;29301;47.620;19.560;2023-04-03T15:47:25;9.90;36.30
43697;DHT22;29301;47.620;19.560;2023-04-03T15:49:52;9.90;36.60
43697;DHT22;29301;47.620;19.560;2023-04-03T15:52:18;9.90;37.10
43697;DHT22;29301;47.620;19.560;2023-04-03T15:54:44;9.90;37.50
43697;DHT22;29301;47.620;19.560;2023-04-03T15:57:10;9.80;38.00
43697;DHT22;29301;47.620;19.560;2023-04-03T15:59:35;9.90;38.40
43697;DHT22;29301;47.620;19.560;2023-04-03T16:02:02;9.80;38.50
43697;DHT22;29301;47.620;19.560;2023-04-03T16:04:29;9.80;38.60
43697;DHT22;29301;47.620;19.560;2023-04-03T16:06:55;9.80;39.00
43697;DHT22;29301;47.620;19.560;2023-04-03T16:09:21;9.70;39.00
43697;DHT22;29301;47.620;19.560;2023-04-03T16:11:47;9.70;38.20
43697;DHT22;29301;47.620;19.560;2023-04-03T16:14:15;9.60;35.80
43697;DHT22;29301;47.620;19.560;2023-04-03T16:16:41;9.50;35.80
43697;DHT22;29301;47.620;19.560;2023-04-03T16:19:07;9.50;36.10
43697;DHT22;29301;47.620;19.560;2023-04-03T16:21:33;9.50;36.50
43697;DHT22;29301;47.620;19.560;2023-04-03T16:23:59;9.50;36.50
43697;DHT22;29301;47.620;19.560;2023-04-03T16:26:25;9.50;36.80
43697;DHT22;29301;47.620;19.560;2023-04-03T16:28:51;9.50;37.20
43697;DHT22;29301;47.620;19.560;2023-04-03T16:31:17;9.50;37.10
43697;DHT22;29301;47.620;19.560;2023-04-03T16:33:42;9.40;37.00
43697;DHT22;29301;47.620;19.560;2023-04-03T16:36:08;9.40;37.00
43697;DHT22;29301;47.620;19.560;2023-04-03T16:38:35;9.40;37.20
43697;DHT22;29301;47.620;19.560;2023-04-03T16:41:01;9.40;36.80
43697;DHT22;29301;47.620;19.560;2023-04-03T16:43:31;9.40;36.20
43697;DHT22;29301;47.620;19.560;2023-04-03T16:45:57;9.40;36.20
43697;DHT22;29301;47.620;19.560;2023-04-03T16:48:23;9.40;36.40
43697;DHT22;29301;47.620;19.560;2023-04-03T16:50:49;9.30;36.90
43697;DHT22;29301;47.620;19.560;2023-04-03T16:53:21;9.30;37.30
43697;DHT22;29301;47.620;19.560;2023-04-03T16:55:49;9.30;37.30
43697;DHT22;29301;47.620;19.560;2023-04-03T16:58:15;9.20;36.20
43697;DHT22;29301;47.620;19.560;2023-04-03T17:00:41;9.00;34.50
43697;DHT22;29301;47.620;19.560;2023-04-03T17:03:07;8.90;34.20
43697;DHT22;29301;47.620;19.560;2023-04-03T17:05:33;8.80;34.00
43697;DHT22;29301;47.620;19.560;2023-04-03T17:07:59;8.90;34.50
43697;DHT22;29301;47.620;19.560;2023-04-03T17:10:26;8.90;34.50
43697;DHT22;29301;47.620;19.560;2023-04-03T17:12:52;8.80;33.30
43697;DHT22;29301;47.620;19.560;2023-04-03T17:15:17;8.70;33.50
43697;DHT22;29301;47.620;19.560;2023-04-03T17:17:45;8.70;34.20
43697;DHT22;29301;47.620;19.560;2023-04-03T17:20:11;8.70;34.90
43697;DHT22;29301;47.620;19.560;2023-04-03T17:22:37;8.80;35.50